createdAt,value
2019-03-23T00:05:00.527Z,13.40
2019-03-23T00:10:07.664Z,11.80
2019-03-23T00:15:14.271Z,12.27
2019-03-23T00:20:20.684Z,13.20
2019-03-23T00:25:27.903Z,13.20
2019-03-23T00:30:41.819Z,12.77
2019-03-23T00:35:47.601Z,12.63
2019-03-23T00:40:53.165Z,13.17
2019-03-23T00:45:58.935Z,13.67
2019-03-23T00:51:04.215Z,14.13
2019-03-23T00:56:09.555Z,14.40
2019-03-23T01:01:15.181Z,12.67
2019-03-23T01:06:20.263Z,13.93
2019-03-23T01:11:25.215Z,12.87
2019-03-23T01:16:31.937Z,13.53
2019-03-23T01:21:37.465Z,12.43
2019-03-23T01:26:42.910Z,14.37
2019-03-23T01:31:48.204Z,14.50
2019-03-23T01:37:02.557Z,13.97
2019-03-23T01:42:01.368Z,13.77
2019-03-23T01:47:06.898Z,14.87
2019-03-23T01:52:14.407Z,13.08
2019-03-23T01:57:20.162Z,14.73
2019-03-23T02:02:26.768Z,13.95
2019-03-23T02:07:32.607Z,14.68
2019-03-23T02:12:38.384Z,13.80
2019-03-23T02:17:45.168Z,14.80
2019-03-23T02:22:52.814Z,14.57
2019-03-23T02:28:00.150Z,13.27
2019-03-23T02:33:06.691Z,13.13
2019-03-23T02:38:12.864Z,14.37
2019-03-23T02:43:18.864Z,12.83
2019-03-23T02:48:24.395Z,13.17
2019-03-23T02:53:30.594Z,14.30
2019-03-23T02:58:35.877Z,14.47
2019-03-23T03:03:41.435Z,14.30
2019-03-23T03:08:47.047Z,13.80
2019-03-23T03:13:55.295Z,14.53
2019-03-23T03:19:02.317Z,14.70
2019-03-23T03:24:07.597Z,14.78
2019-03-23T03:29:13.480Z,13.47
2019-03-23T03:34:18.907Z,15.07
2019-03-23T03:39:24.390Z,13.93
2019-03-23T03:44:32.217Z,13.30
2019-03-23T03:49:38.196Z,14.83
2019-03-23T03:54:44.038Z,16.43
2019-03-23T03:59:49.568Z,16.33
2019-03-23T04:04:54.721Z,15.87
2019-03-23T04:10:00.611Z,14.00
2019-03-23T04:15:06.513Z,13.83
2019-03-23T04:20:12.352Z,14.53
2019-03-23T04:25:21.125Z,14.33
2019-03-23T04:30:26.078Z,13.57
2019-03-23T04:35:31.403Z,14.70
2019-03-23T04:40:37.201Z,13.77
2019-03-23T04:45:43.462Z,14.07
2019-03-23T04:50:48.820Z,15.60
2019-03-23T04:55:55.060Z,14.53
2019-03-23T05:01:00.648Z,14.47
2019-03-23T05:06:06.142Z,14.80
2019-03-23T05:11:12.395Z,14.03
2019-03-23T05:16:18.494Z,14.53
2019-03-23T05:21:24.603Z,13.77
2019-03-23T05:26:30.151Z,15.10
2019-03-23T05:31:37.282Z,16.12
2019-03-23T05:36:46.300Z,14.63
2019-03-23T05:41:55.677Z,14.40
2019-03-23T05:47:07.139Z,14.13
2019-03-23T05:52:12.877Z,15.23
2019-03-23T05:57:19.900Z,16.65
2019-03-23T06:02:25.688Z,16.33
2019-03-23T06:07:33.021Z,15.50
2019-03-23T06:12:39.445Z,15.50
2019-03-23T06:17:45.119Z,16.33
2019-03-23T06:22:53.568Z,15.10
2019-03-23T06:27:58.911Z,15.23
2019-03-23T06:33:05.165Z,15.73
2019-03-23T06:38:10.601Z,15.37
2019-03-23T06:43:17.730Z,14.20
2019-03-23T06:48:23.522Z,10.23
2019-03-23T06:53:45.678Z,9.33
2019-03-23T06:58:51.847Z,8.80
2019-03-23T07:03:57.706Z,8.90
2019-03-23T07:09:04.474Z,9.30
2019-03-23T07:14:10.115Z,9.43
2019-03-23T07:19:15.402Z,10.55
2019-03-23T07:24:20.976Z,9.87
2019-03-23T07:29:29.422Z,9.33
2019-03-23T07:34:35.349Z,9.58
2019-03-23T07:39:41.135Z,9.35
2019-03-23T07:44:46.689Z,9.20
2019-03-23T07:49:52.495Z,10.40
2019-03-23T07:55:13.365Z,9.95
2019-03-23T08:00:22.239Z,9.93
2019-03-23T08:05:27.705Z,9.75
2019-03-23T08:10:34.387Z,10.63
2019-03-23T08:15:40.086Z,10.88
2019-03-23T08:20:48.574Z,11.80
2019-03-23T08:25:54.119Z,12.27
2019-03-23T08:31:01.951Z,12.45
2019-03-23T08:36:07.044Z,11.73
2019-03-23T08:41:13.279Z,12.13
2019-03-23T08:46:19.435Z,13.15
2019-03-23T08:51:27.498Z,12.37
2019-03-23T08:56:32.926Z,12.55
2019-03-23T09:01:38.434Z,13.35
2019-03-23T09:06:44.471Z,13.95
2019-03-23T09:11:50.220Z,14.25
2019-03-23T09:16:55.723Z,13.13
2019-03-23T09:22:01.115Z,13.98
2019-03-23T09:27:07.867Z,13.13
2019-03-23T09:32:13.067Z,13.63
2019-03-23T09:37:18.291Z,13.55
2019-03-23T09:42:26.127Z,16.05
2019-03-23T09:47:31.690Z,17.45
2019-03-23T09:52:38.054Z,17.57
2019-03-23T09:57:43.575Z,17.57
2019-03-23T10:02:48.602Z,16.77
2019-03-23T10:07:56.548Z,15.88
2019-03-23T10:13:02.242Z,15.78
2019-03-23T10:18:10.503Z,15.65
2019-03-23T10:23:16.190Z,14.18
2019-03-23T10:28:23.399Z,13.40
2019-03-23T10:33:28.457Z,13.72
2019-03-23T10:38:34.752Z,15.35
2019-03-23T10:43:39.815Z,16.50
2019-03-23T10:48:44.970Z,15.80
2019-03-23T10:53:50.472Z,15.18
2019-03-23T10:58:55.552Z,16.57
2019-03-23T11:04:01.607Z,14.70
2019-03-23T11:09:08.782Z,15.48
2019-03-23T11:14:17.958Z,14.10
2019-03-23T11:19:23.322Z,15.13
2019-03-23T11:24:28.484Z,15.58
2019-03-23T11:29:34.004Z,15.08
2019-03-23T11:34:41.673Z,14.95
2019-03-23T11:39:46.687Z,14.90
2019-03-23T11:44:52.276Z,14.80
2019-03-23T11:50:00.129Z,13.83
2019-03-23T11:55:06.151Z,13.48
2019-03-23T12:00:12.693Z,13.15
2019-03-23T12:05:17.819Z,13.22
2019-03-23T12:10:23.124Z,12.05
2019-03-23T12:15:29.804Z,12.58
2019-03-23T12:20:36.190Z,12.88
2019-03-23T12:25:41.934Z,10.43
2019-03-23T12:30:47.240Z,10.32
2019-03-23T12:35:52.881Z,12.20
2019-03-23T12:41:09.973Z,11.08
2019-03-23T12:46:07.080Z,10.43
2019-03-23T12:51:12.406Z,11.12
2019-03-23T12:56:18.092Z,11.73
2019-03-23T13:01:23.662Z,12.68
2019-03-23T13:06:28.884Z,12.88
2019-03-23T13:11:35.446Z,13.65
2019-03-23T13:16:41.241Z,12.85
2019-03-23T13:21:46.847Z,13.13
2019-03-23T13:26:52.660Z,14.47
2019-03-23T13:31:57.965Z,13.77
2019-03-23T13:37:03.283Z,14.15
2019-03-23T13:42:09.310Z,14.45
2019-03-23T13:47:18.779Z,18.00
2019-03-23T13:52:24.166Z,17.30
2019-03-23T13:57:29.202Z,19.17
2019-03-23T14:02:35.296Z,19.25
2019-03-23T14:07:50.093Z,19.77
2019-03-23T14:12:58.119Z,20.67
2019-03-23T14:18:09.293Z,20.67
2019-03-23T14:23:14.693Z,21.45
2019-03-23T14:28:22.446Z,23.20
2019-03-23T14:33:29.126Z,21.60
2019-03-23T14:38:34.167Z,22.05
2019-03-23T14:43:39.671Z,22.55
2019-03-23T14:48:46.698Z,23.35
2019-03-23T14:53:53.862Z,21.27
2019-03-23T14:58:59.755Z,22.70
2019-03-23T15:04:14.268Z,23.10
2019-03-23T15:09:23.712Z,21.25
2019-03-23T15:14:29.202Z,23.18
2019-03-23T15:19:34.387Z,20.62
2019-03-23T15:24:39.816Z,21.37
2019-03-23T15:29:44.975Z,22.52
2019-03-23T15:34:50.076Z,20.35
2019-03-23T15:39:56.504Z,19.40
2019-03-23T15:45:02.889Z,20.97
2019-03-23T15:50:08.534Z,18.70
2019-03-23T15:55:16.261Z,19.32
2019-03-23T16:00:23.145Z,18.85
2019-03-23T16:05:28.555Z,19.32
2019-03-23T16:10:34.573Z,19.10
2019-03-23T16:15:39.841Z,19.70
2019-03-23T16:20:45.206Z,19.42
2019-03-23T16:25:50.864Z,17.55
2019-03-23T16:30:56.089Z,19.23
2019-03-23T16:36:03.488Z,19.37
2019-03-23T16:41:07.912Z,18.98
2019-03-23T16:46:13.368Z,19.67
2019-03-23T16:51:19.014Z,17.53
2019-03-23T16:56:24.059Z,18.67
2019-03-23T17:01:30.601Z,18.70
2019-03-23T17:06:45.813Z,17.73
2019-03-23T17:11:43.096Z,18.43
2019-03-23T17:16:48.891Z,17.17
2019-03-23T17:21:53.959Z,19.27
2019-03-23T17:26:59.185Z,19.97
2019-03-23T17:32:06.451Z,17.97
2019-03-23T17:37:11.468Z,18.27
2019-03-23T17:42:17.185Z,19.93
2019-03-23T17:47:22.793Z,25.77
2019-03-23T17:52:33.674Z,28.63
2019-03-23T17:57:39.062Z,23.60
2019-03-23T18:02:46.843Z,22.80
2019-03-23T18:07:52.664Z,18.67
2019-03-23T18:12:58.422Z,17.40
2019-03-23T18:18:03.423Z,18.43
2019-03-23T18:23:09.315Z,18.97
2019-03-23T18:28:15.043Z,18.57
2019-03-23T18:33:20.572Z,18.40
2019-03-23T18:38:25.734Z,19.02
2019-03-23T18:43:31.043Z,18.03
2019-03-23T18:48:36.458Z,18.03
2019-03-23T18:53:42.403Z,16.70
2019-03-23T18:58:47.302Z,18.33
2019-03-23T19:03:53.365Z,19.23
2019-03-23T19:08:59.982Z,18.47
2019-03-23T19:14:05.079Z,22.10
2019-03-23T19:19:10.140Z,16.80
2019-03-23T19:24:16.770Z,18.17
2019-03-23T19:29:21.866Z,15.70
2019-03-23T19:34:26.996Z,16.87
2019-03-23T19:39:32.543Z,17.13
2019-03-23T19:44:38.447Z,16.70
2019-03-23T19:49:46.802Z,15.97
2019-03-23T19:54:52.522Z,16.13
2019-03-23T19:59:57.789Z,15.93
2019-03-23T20:05:03.536Z,15.07
2019-03-23T20:10:10.234Z,16.57
2019-03-23T20:15:16.001Z,15.80
2019-03-23T20:20:22.109Z,16.80
2019-03-23T20:25:28.002Z,17.47
2019-03-23T20:30:33.232Z,15.67
2019-03-23T20:35:40.242Z,16.62
2019-03-23T20:40:53.302Z,16.27
2019-03-23T20:45:59.041Z,16.63
2019-03-23T20:51:04.965Z,17.30
2019-03-23T20:56:16.744Z,17.60
2019-03-23T21:01:22.181Z,18.37
2019-03-23T21:06:27.591Z,18.13
2019-03-23T21:11:33.216Z,17.87
2019-03-23T21:16:39.278Z,17.00
2019-03-23T21:21:45.264Z,19.93
2019-03-23T21:26:50.734Z,18.13
2019-03-23T21:31:55.870Z,17.73
2019-03-23T21:37:01.477Z,18.47
2019-03-23T21:42:08.065Z,17.63
2019-03-23T21:47:15.402Z,17.90
2019-03-23T21:52:20.960Z,16.47
2019-03-23T21:57:27.116Z,16.23
2019-03-23T22:02:34.335Z,17.53
2019-03-23T22:07:42.489Z,16.10
2019-03-23T22:12:50.347Z,17.30
2019-03-23T22:17:56.472Z,17.03
2019-03-23T22:23:02.388Z,16.97
2019-03-23T22:28:09.497Z,16.67
2019-03-23T22:33:14.558Z,15.80
2019-03-23T22:38:20.747Z,15.43
2019-03-23T22:43:29.387Z,14.70
2019-03-23T22:48:37.573Z,15.70
2019-03-23T22:53:44.014Z,16.47
2019-03-23T22:58:52.671Z,17.40
2019-03-23T23:03:59.159Z,16.83
2019-03-23T23:09:06.203Z,17.60
2019-03-23T23:14:11.779Z,16.43
2019-03-23T23:19:17.093Z,17.37
2019-03-23T23:24:22.953Z,17.33
2019-03-23T23:29:29.188Z,16.20
2019-03-23T23:34:34.857Z,17.33
2019-03-23T23:39:39.997Z,19.30
2019-03-23T23:44:45.391Z,19.37
2019-03-23T23:49:50.656Z,20.17
2019-03-23T23:54:55.794Z,17.13
